createdAt,value
2022-10-15T00:03:14.025Z,99.99
2022-10-15T00:08:39.395Z,99.99
2022-10-15T00:13:31.793Z,99.99
2022-10-15T00:18:31.745Z,99.99
2022-10-15T00:23:31.660Z,99.99
2022-10-15T00:28:33.593Z,99.99
2022-10-15T00:33:31.552Z,99.99
2022-10-15T00:38:31.459Z,99.99
2022-10-15T00:43:31.368Z,99.99
2022-10-15T00:48:31.313Z,99.99
2022-10-15T00:53:31.268Z,99.99
2022-10-15T00:58:31.174Z,99.99
2022-10-15T01:03:31.372Z,99.99
2022-10-15T01:08:31.070Z,99.99
2022-10-15T01:13:31.063Z,99.99
2022-10-15T01:18:30.917Z,99.99
2022-10-15T01:23:30.868Z,99.99
2022-10-15T01:28:30.816Z,99.99
2022-10-15T01:33:30.676Z,99.99
2022-10-15T01:38:30.644Z,99.99
2022-10-15T01:43:30.576Z,99.99
2022-10-15T01:48:30.502Z,99.99
2022-10-15T01:53:30.433Z,99.99
2022-10-15T01:58:30.367Z,99.99
2022-10-15T02:03:30.286Z,99.99
2022-10-15T02:08:30.239Z,99.99
2022-10-15T02:13:30.167Z,99.99
2022-10-15T02:18:30.193Z,99.99
2022-10-15T02:23:30.039Z,99.99
2022-10-15T02:28:30.034Z,99.99
2022-10-15T02:33:29.875Z,99.99
2022-10-15T02:38:29.847Z,99.99
2022-10-15T02:43:29.767Z,99.99
2022-10-15T02:48:29.744Z,99.99
2022-10-15T02:53:29.663Z,99.99
2022-10-15T02:58:29.568Z,99.99
2022-10-15T03:03:29.476Z,99.99
2022-10-15T03:08:29.419Z,99.99
2022-10-15T03:13:29.363Z,99.99
2022-10-15T03:18:29.271Z,99.99
2022-10-15T03:23:29.241Z,99.99
2022-10-15T03:28:29.223Z,99.99
2022-10-15T03:33:29.069Z,99.99
2022-10-15T03:38:29.020Z,99.99
2022-10-15T03:43:28.966Z,99.99
2022-10-15T03:48:28.877Z,99.99
2022-10-15T03:53:28.829Z,99.99
2022-10-15T03:58:28.720Z,99.99
2022-10-15T04:03:28.688Z,99.99
2022-10-15T04:08:28.600Z,99.99
2022-10-15T04:13:28.518Z,99.99
2022-10-15T04:18:38.211Z,99.99
2022-10-15T04:23:30.583Z,99.99
2022-10-15T04:28:30.606Z,99.99
2022-10-15T04:33:30.404Z,99.99
2022-10-15T04:38:30.344Z,99.99
2022-10-15T04:43:30.273Z,99.99
2022-10-15T04:48:30.247Z,99.99
2022-10-15T04:53:30.147Z,99.99
2022-10-15T04:58:30.095Z,99.99
2022-10-15T05:03:30.129Z,99.99
2022-10-15T05:08:29.956Z,99.99
2022-10-15T05:13:29.923Z,99.99
2022-10-15T05:18:29.860Z,99.99
2022-10-15T05:23:29.730Z,99.99
2022-10-15T05:28:29.726Z,99.99
2022-10-15T05:33:29.606Z,99.99
2022-10-15T05:38:29.537Z,99.99
2022-10-15T05:43:29.464Z,99.99
2022-10-15T05:48:29.477Z,99.99
2022-10-15T05:53:29.343Z,99.99
2022-10-15T05:58:32.048Z,99.99
2022-10-15T06:03:30.198Z,99.99
2022-10-15T06:08:29.131Z,99.99
2022-10-15T06:13:29.051Z,99.99
2022-10-15T06:18:29.002Z,99.99
2022-10-15T06:23:28.925Z,99.99
2022-10-15T06:28:28.874Z,99.99
2022-10-15T06:33:28.790Z,99.99
2022-10-15T06:38:28.736Z,99.99
2022-10-15T06:43:31.006Z,99.99
2022-10-15T06:48:28.597Z,99.99
2022-10-15T06:53:28.527Z,99.99
2022-10-15T06:58:28.437Z,99.99
2022-10-15T07:03:28.381Z,99.99
2022-10-15T07:08:28.332Z,99.99
2022-10-15T07:13:28.230Z,99.99
2022-10-15T07:18:28.228Z,99.99
2022-10-15T07:23:28.157Z,99.99
2022-10-15T07:28:28.108Z,99.99
2022-10-15T07:33:27.988Z,99.99
2022-10-15T07:38:27.922Z,99.99
2022-10-15T07:43:27.819Z,99.99
2022-10-15T07:48:27.783Z,99.99
2022-10-15T07:53:27.709Z,99.99
2022-10-15T07:58:27.652Z,99.99
2022-10-15T08:03:27.597Z,99.99
2022-10-15T08:08:27.485Z,99.99
2022-10-15T08:13:27.427Z,99.99
2022-10-15T08:18:27.637Z,99.99
2022-10-15T08:23:27.297Z,99.99
2022-10-15T08:28:27.297Z,99.99
2022-10-15T08:33:27.209Z,99.99
2022-10-15T08:38:27.087Z,99.99
2022-10-15T08:43:27.046Z,99.25
2022-10-15T08:48:26.973Z,98.70
2022-10-15T08:53:26.915Z,98.50
2022-10-15T08:58:26.835Z,99.01
2022-10-15T09:03:26.801Z,99.71
2022-10-15T09:08:26.709Z,99.86
2022-10-15T09:13:26.677Z,99.99
2022-10-15T09:18:26.839Z,99.91
2022-10-15T09:23:26.505Z,99.10
2022-10-15T09:28:26.461Z,98.45
2022-10-15T09:33:26.355Z,97.85
2022-10-15T09:38:26.286Z,96.48
2022-10-15T09:43:26.191Z,95.02
2022-10-15T09:48:26.170Z,95.02
2022-10-15T09:53:28.184Z,94.11
2022-10-15T09:58:26.006Z,94.07
2022-10-15T10:03:25.946Z,93.26
2022-10-15T10:08:25.881Z,94.37
2022-10-15T10:13:25.801Z,94.17
2022-10-15T10:18:25.734Z,94.17
2022-10-15T10:23:25.894Z,94.57
2022-10-15T10:28:25.602Z,94.17
2022-10-15T10:33:25.558Z,93.36
2022-10-15T10:38:25.478Z,92.71
2022-10-15T10:43:25.369Z,93.62
2022-10-15T10:48:25.346Z,93.01
2022-10-15T10:53:25.280Z,93.32
2022-10-15T10:58:27.130Z,93.12
2022-10-15T11:03:25.220Z,93.52
2022-10-15T11:08:25.099Z,93.72
2022-10-15T11:13:27.583Z,92.91
2022-10-15T11:18:25.916Z,92.97
2022-10-15T11:23:27.243Z,93.68
2022-10-15T11:28:24.888Z,93.88
2022-10-15T11:33:24.744Z,93.77
2022-10-15T11:38:24.681Z,93.13
2022-10-15T11:43:24.608Z,92.62
2022-10-15T11:48:24.537Z,91.97
2022-10-15T11:53:24.460Z,91.13
2022-10-15T11:58:24.355Z,90.32
2022-10-15T12:03:24.316Z,89.87
2022-10-15T12:08:24.255Z,89.57
2022-10-15T12:13:24.175Z,90.37
2022-10-15T12:18:24.128Z,89.67
2022-10-15T12:23:24.052Z,89.17
2022-10-15T12:28:24.089Z,89.23
2022-10-15T12:33:23.916Z,88.28
2022-10-15T12:38:23.854Z,87.27
2022-10-15T12:43:23.790Z,87.13
2022-10-15T12:48:23.724Z,87.43
2022-10-15T12:53:23.716Z,87.02
2022-10-15T12:58:23.575Z,87.57
2022-10-15T13:03:23.597Z,88.38
2022-10-15T13:08:23.549Z,89.39
2022-10-15T13:13:23.387Z,89.48
2022-10-15T13:18:23.293Z,87.98
2022-10-15T13:23:31.222Z,89.08
2022-10-15T13:28:24.509Z,86.34
2022-10-15T13:33:23.109Z,86.24
2022-10-15T13:38:23.200Z,85.84
2022-10-15T13:43:22.972Z,86.28
2022-10-15T13:48:22.912Z,87.13
2022-10-15T13:53:22.885Z,88.18
2022-10-15T13:58:26.486Z,88.62
2022-10-15T14:03:22.691Z,89.63
2022-10-15T14:08:22.620Z,88.88
2022-10-15T14:13:22.670Z,88.88
2022-10-15T14:18:22.491Z,89.08
2022-10-15T14:23:22.432Z,88.43
2022-10-15T14:28:22.439Z,88.13
2022-10-15T14:33:22.308Z,89.04
2022-10-15T14:38:22.236Z,89.18
2022-10-15T14:43:22.317Z,88.98
2022-10-15T14:48:22.230Z,89.43
2022-10-15T14:53:22.026Z,90.03
2022-10-15T14:58:22.001Z,90.78
2022-10-15T15:03:22.009Z,91.28
2022-10-15T15:08:21.859Z,91.38
2022-10-15T15:13:21.748Z,91.58
2022-10-15T15:18:21.691Z,91.69
2022-10-15T15:23:21.730Z,91.99
2022-10-15T15:28:21.648Z,92.63
2022-10-15T15:33:21.616Z,92.33
2022-10-15T15:38:21.563Z,93.14
2022-10-15T15:43:21.366Z,93.04
2022-10-15T15:48:21.273Z,92.94
2022-10-15T15:53:21.226Z,93.34
2022-10-15T15:58:21.186Z,93.34
2022-10-15T16:03:21.069Z,94.09
2022-10-15T16:08:21.077Z,94.90
2022-10-15T16:13:21.051Z,95.55
2022-10-15T16:18:20.907Z,96.25
2022-10-15T16:23:20.802Z,96.80
2022-10-15T16:28:20.763Z,97.31
2022-10-15T16:33:20.682Z,97.76
2022-10-15T16:38:20.619Z,98.47
2022-10-15T16:43:20.560Z,98.47
2022-10-15T16:48:20.481Z,99.02
2022-10-15T16:53:20.409Z,99.32
2022-10-15T16:58:20.363Z,99.42
2022-10-15T17:03:20.250Z,99.77
2022-10-15T17:08:22.346Z,99.87
2022-10-15T17:13:20.165Z,99.87
2022-10-15T17:18:20.052Z,99.87
2022-10-15T17:23:20.021Z,99.82
2022-10-15T17:33:19.853Z,99.52
2022-10-15T17:38:21.896Z,99.72
2022-10-15T17:43:19.743Z,99.72
2022-10-15T17:48:19.646Z,99.82
2022-10-15T17:53:19.591Z,99.97
2022-10-15T17:58:19.555Z,99.99
2022-10-15T18:03:19.441Z,99.99
2022-10-15T18:08:19.396Z,99.99
2022-10-15T18:13:19.332Z,99.99
2022-10-15T18:18:19.235Z,99.99
2022-10-15T18:23:19.229Z,99.99
2022-10-15T18:28:19.195Z,99.99
2022-10-15T18:33:19.039Z,99.99
2022-10-15T18:38:19.062Z,99.99
2022-10-15T18:43:19.581Z,99.99
2022-10-15T18:48:18.846Z,99.99
2022-10-15T18:53:18.791Z,99.99
2022-10-15T18:58:19.157Z,99.99
2022-10-15T19:03:18.627Z,99.99
2022-10-15T19:08:20.834Z,99.99
2022-10-15T19:13:18.522Z,99.99
2022-10-15T19:18:18.437Z,99.99
2022-10-15T19:23:18.700Z,99.99
2022-10-15T19:28:18.370Z,99.99
2022-10-15T19:33:18.251Z,99.99
2022-10-15T19:38:18.205Z,99.99
2022-10-15T19:43:18.094Z,99.99
2022-10-15T19:48:18.081Z,99.99
2022-10-15T19:53:17.955Z,99.99
2022-10-15T19:58:17.941Z,99.99
2022-10-15T20:03:17.842Z,99.99
2022-10-15T20:08:17.783Z,99.99
2022-10-15T20:13:17.758Z,99.99
2022-10-15T20:18:17.653Z,99.99
2022-10-15T20:23:17.579Z,99.99
2022-10-15T20:28:17.648Z,99.99
2022-10-15T20:33:17.561Z,99.99
2022-10-15T20:38:17.416Z,99.99
2022-10-15T20:43:17.287Z,99.99
2022-10-15T20:48:17.244Z,99.99
2022-10-15T20:53:17.179Z,99.99
2022-10-15T20:58:17.072Z,99.99
2022-10-15T21:03:17.399Z,99.99
2022-10-15T21:08:16.981Z,99.99
2022-10-15T21:13:16.919Z,99.99
2022-10-15T21:18:16.835Z,99.99
2022-10-15T21:23:16.759Z,99.99
2022-10-15T21:28:16.670Z,99.99
2022-10-15T21:33:16.606Z,99.99
2022-10-15T21:38:16.562Z,99.99
2022-10-15T21:43:16.573Z,99.99
2022-10-15T21:48:16.404Z,99.99
2022-10-15T21:53:16.351Z,99.99
2022-10-15T21:58:16.289Z,99.99
2022-10-15T22:03:16.208Z,99.99
2022-10-15T22:08:16.185Z,99.99
2022-10-15T22:13:16.058Z,99.99
2022-10-15T22:18:16.002Z,99.99
2022-10-15T22:23:15.949Z,99.99
2022-10-15T22:28:15.851Z,99.99
2022-10-15T22:33:15.823Z,99.99
2022-10-15T22:38:15.735Z,99.99
2022-10-15T22:43:15.655Z,99.99
2022-10-15T22:48:15.590Z,99.99
2022-10-15T22:53:15.537Z,99.99
2022-10-15T22:58:15.447Z,99.99
2022-10-15T23:03:15.424Z,99.99
2022-10-15T23:08:15.355Z,99.99
2022-10-15T23:13:15.241Z,99.99
2022-10-15T23:18:15.220Z,99.99
2022-10-15T23:23:15.124Z,99.99
2022-10-15T23:28:15.061Z,99.99
2022-10-15T23:33:14.986Z,99.99
2022-10-15T23:38:14.944Z,99.99
2022-10-15T23:43:14.858Z,99.99
2022-10-15T23:48:14.808Z,99.99
2022-10-15T23:53:14.720Z,99.99
2022-10-15T23:58:14.662Z,99.99
